Diane B. — WDG8255 — position and weather

sailwx.info

Track history (hours):
 
Tides and Currents Weather Stations Pressure Air Temp Water Temp Dewpoint Dewpoint Depression Visibility Wind Speed Wind Dir Waves Ship Positions

Diane B.

Owner: Bernert Barge lines, Oregon City, OR. More information available from US FCC via Universal Licensing System and Coast Guard Vessel Documentation Center.

Last reported at 2018-Jan-18 16:23 UTC. Time now 2018-Jan-19 11:54 UTC.
Position N 45°34' W 122°25'.

Length 22 m.

Type: Towing. MMSI: 367575580.

Date/timePositionNaut miles runAvg speedWind from/ knotsBaromVisibWave heightAir tempDewpointWater temp
2018-Jan-18 16:23N 45°34' W 122°25'0 0.0
2018-Jan-18 16:01N 45°34' W 122°25'0 0.0
2018-Jan-18 15:30N 45°34' W 122°25'0 0.0
2018-Jan-18 14:58N 45°34' W 122°25'0 0.0
2018-Jan-18 14:29N 45°34' W 122°25'0 0.0
2018-Jan-18 14:00N 45°34' W 122°25'0 0.0
2018-Jan-18 13:30N 45°34' W 122°25'0 0.0
2018-Jan-18 12:59N 45°34' W 122°25'0 0.0
2018-Jan-18 12:30N 45°34' W 122°25'0 0.0
2018-Jan-18 12:01N 45°34' W 122°25'0 0.0
2018-Jan-18 11:30N 45°34' W 122°25'0 0.0
2018-Jan-18 11:01N 45°34' W 122°25'0 0.0
2018-Jan-18 10:28N 45°34' W 122°25'0 0.0
2018-Jan-18 10:00N 45°34' W 122°25'0 0.0
2018-Jan-18 09:29N 45°34' W 122°25'0 0.0
2018-Jan-18 09:00N 45°34' W 122°25'0 0.0
2018-Jan-18 08:31N 45°34' W 122°25'0 0.0
2018-Jan-18 08:00N 45°34' W 122°25'0 0.0
2018-Jan-18 07:31N 45°34' W 122°25'0 0.0
2018-Jan-18 07:00N 45°34' W 122°25'1 2.3
2018-Jan-18 06:30N 45°34' W 122°26'2 3.4
2018-Jan-18 06:00N 45°35' W 122°28'1 2.9
2018-Jan-18 05:30N 45°35' W 122°30'1 2.8
2018-Jan-18 05:00N 45°36' W 122°32'2 3.0
2018-Jan-18 04:30N 45°36' W 122°34'2 3.4
2018-Jan-18 04:01N 45°36' W 122°37'2 3.3
2018-Jan-18 03:31N 45°37' W 122°39'2 3.4
2018-Jan-18 03:00N 45°37' W 122°41'2 3.5
2018-Jan-18 02:30N 45°38' W 122°43'2 3.9
2018-Jan-18 01:59N 45°39' W 122°46'2 4.0
2018-Jan-18 01:30N 45°41' W 122°46'2 4.1
2018-Jan-18 01:00N 45°43' W 122°46'4 4.2
2018-Jan-18 00:01N 45°47' W 122°47'0 4.5
2018-Jan-17 23:57N 45°48' W 122°47'  
2018-Jan-12 09:10N 45°34' W 122°25'0 0.0
2018-Jan-12 09:00N 45°34' W 122°25'1 1.3
2018-Jan-12 08:30N 45°34' W 122°25'1 2.7
2018-Jan-12 08:00N 45°34' W 122°27'1 2.7
2018-Jan-12 07:30N 45°35' W 122°29'1 2.7
2018-Jan-12 07:00N 45°35' W 122°31'1 2.4
2018-Jan-12 06:30N 45°36' W 122°32'1 2.7
2018-Jan-12 06:00N 45°36' W 122°34'1 2.8
2018-Jan-12 05:30N 45°36' W 122°36'1 2.9
2018-Jan-12 05:00N 45°37' W 122°38'1 3.0
2018-Jan-12 04:30N 45°37' W 122°40'1 3.0
2018-Jan-12 04:01N 45°38' W 122°42'2 3.7
2018-Jan-12 03:30N 45°39' W 122°44'2 3.5
2018-Jan-12 03:00N 45°40' W 122°46'2 3.4
2018-Jan-12 02:30N 45°42' W 122°46'2 3.5
2018-Jan-12 02:01N 45°43' W 122°46'2 3.3
2018-Jan-12 01:30N 45°45' W 122°46'2 3.4
2018-Jan-12 01:01N 45°47' W 122°46'2 3.4
2018-Jan-12 00:30N 45°48' W 122°47'2 3.2
2018-Jan-12 00:01N 45°50' W 122°47'2 3.4
2018-Jan-11 23:30N 45°52' W 122°47'2 3.4
2018-Jan-11 23:00N 45°53' W 122°48'2 3.1
2018-Jan-11 22:29N 45°55' W 122°49'0 0.6
2018-Jan-11 22:00N 45°55' W 122°49'0 0.1
2018-Jan-11 21:30N 45°55' W 122°49'0 0.0
2018-Jan-11 21:00N 45°55' W 122°49'0 0.0
2018-Jan-11 20:30N 45°55' W 122°49'0 0.0
2018-Jan-11 20:00N 45°55' W 122°49'0 0.0
2018-Jan-11 19:30N 45°55' W 122°49'0 0.0
2018-Jan-11 19:01N 45°55' W 122°49'0 0.0
2018-Jan-11 18:30N 45°55' W 122°49'0 0.0
2018-Jan-11 18:00N 45°55' W 122°49'0 0.0
2018-Jan-11 17:22N 45°55' W 122°49'0 0.0
2018-Jan-11 17:00N 45°55' W 122°49'0 0.0
2018-Jan-11 16:30N 45°55' W 122°49'0 0.0
2018-Jan-11 16:00N 45°55' W 122°49'0 0.0
2018-Jan-11 15:30N 45°55' W 122°49'0 0.0
2018-Jan-11 15:00N 45°55' W 122°49'0 0.0
2018-Jan-11 14:30N 45°55' W 122°49'0 0.0
2018-Jan-11 14:00N 45°55' W 122°49'0 0.0
2018-Jan-11 13:31N 45°55' W 122°49'0 0.0
2018-Jan-11 13:00N 45°55' W 122°49'0 0.0
2018-Jan-11 12:30N 45°55' W 122°49'0 0.0
2018-Jan-11 12:00N 45°55' W 122°49'0 0.0
2018-Jan-11 11:30N 45°55' W 122°49'0 0.0
2018-Jan-11 11:00N 45°55' W 122°49'0 0.0
2018-Jan-11 10:30N 45°55' W 122°49'0 0.0
2018-Jan-11 10:00N 45°55' W 122°49'0 0.0
2018-Jan-11 09:30N 45°55' W 122°49'0 0.0
2018-Jan-11 09:01N 45°55' W 122°49'0 0.0
2018-Jan-11 08:30N 45°55' W 122°49'0 0.0
2018-Jan-11 08:00N 45°55' W 122°49'0 0.0
2018-Jan-11 07:29N 45°55' W 122°49'0 0.0
2018-Jan-11 07:01N 45°55' W 122°49'3 6.8
2018-Jan-11 06:30N 45°51' W 122°47'4 8.8
2018-Jan-11 06:00N 45°47' W 122°47'4 8.8
2018-Jan-11 05:30N 45°43' W 122°46'4 8.2
2018-Jan-11 04:59N 45°38' W 122°47'2 3.4
2018-Jan-11 04:30N 45°37' W 122°47'0 0.0
2018-Jan-11 04:00N 45°37' W 122°47'0 0.0
2018-Jan-11 03:30N 45°37' W 122°47'0 0.0
2018-Jan-11 03:00N 45°37' W 122°47'0 0.0
2018-Jan-11 02:30N 45°37' W 122°47'0 0.0
2018-Jan-11 02:00N 45°37' W 122°47'0 0.0
2018-Jan-11 01:30N 45°37' W 122°47'0 0.0
2018-Jan-11 01:00N 45°37' W 122°47'0 0.0
2018-Jan-11 00:31N 45°37' W 122°47'0 0.0
2018-Jan-11 00:00N 45°37' W 122°47'0 0.0
2018-Jan-10 23:30N 45°37' W 122°47'0 0.0
2018-Jan-10 23:00N 45°37' W 122°47'0 0.0
2018-Jan-10 22:30N 45°37' W 122°47'0 0.0
2018-Jan-10 22:00N 45°37' W 122°47'0 0.0
2018-Jan-10 21:30N 45°37' W 122°47'0 0.0
2018-Jan-10 21:00N 45°37' W 122°47'0 0.0
2018-Jan-10 20:30N 45°37' W 122°47'0 0.0
2018-Jan-10 20:00N 45°37' W 122°47'0 0.0
2018-Jan-10 19:30N 45°37' W 122°47'0 0.0
2018-Jan-10 19:00N 45°37' W 122°47'0 0.0
2018-Jan-10 18:30N 45°37' W 122°47'0 0.0
2018-Jan-10 18:00N 45°37' W 122°47'0 0.0
2018-Jan-10 17:30N 45°37' W 122°47'0 0.0
2018-Jan-10 17:00N 45°37' W 122°47'0 0.0
2018-Jan-10 16:30N 45°37' W 122°47'0 0.0
2018-Jan-10 16:00N 45°37' W 122°47'0 0.0
2018-Jan-10 15:30N 45°37' W 122°47'0 0.0
2018-Jan-10 15:00N 45°37' W 122°47'0 0.0
2018-Jan-10 14:30N 45°37' W 122°47'0 0.0
2018-Jan-10 14:00N 45°37' W 122°47'0 0.0
2018-Jan-10 13:22N 45°37' W 122°47'0 0.0
2018-Jan-10 13:00N 45°37' W 122°47'0 0.0
2018-Jan-10 12:30N 45°37' W 122°47'0 0.0
2018-Jan-10 12:00N 45°37' W 122°47'0 0.0
2018-Jan-10 11:30N 45°37' W 122°47'0 0.0
2018-Jan-10 11:00N 45°37' W 122°47'0 0.0
2018-Jan-10 10:30N 45°37' W 122°47'0 0.0
2018-Jan-10 10:01N 45°37' W 122°47'0 0.0
2018-Jan-10 09:30N 45°37' W 122°47'0 0.0
2018-Jan-10 09:00N 45°37' W 122°47'0 0.0
2018-Jan-10 08:31N 45°37' W 122°47'0 0.0
2018-Jan-10 08:00N 45°37' W 122°47'0 0.0
2018-Jan-10 07:31N 45°37' W 122°47'0 0.0
2018-Jan-10 07:00N 45°37' W 122°47'0 0.0
2018-Jan-10 06:31N 45°37' W 122°47'0 0.0
2018-Jan-10 06:01N 45°37' W 122°47'0 0.0
2018-Jan-10 05:30N 45°37' W 122°47'0 0.0
2018-Jan-10 05:00N 45°37' W 122°47'0 0.0
2018-Jan-10 04:30N 45°37' W 122°47'2 3.1
2018-Jan-10 04:00N 45°38' W 122°47'2 4.0
2018-Jan-10 03:30N 45°40' W 122°46'2 3.4
2018-Jan-10 02:54N 45°42' W 122°46'1 3.5
2018-Jan-10 02:30N 45°44' W 122°46'2 3.5
2018-Jan-10 02:00N 45°45' W 122°46'2 3.8
2018-Jan-10 01:30N 45°47' W 122°47'2 3.7
2018-Jan-10 00:59N 45°49' W 122°48'2 3.5
2018-Jan-10 00:23N 45°51' W 122°47'1 3.4
2018-Jan-09 23:59N 45°52' W 122°47'2 3.3
2018-Jan-09 23:30N 45°54' W 122°48'1 1.7
2018-Jan-09 23:00N 45°55' W 122°49'0 0.0
2018-Jan-09 22:30N 45°55' W 122°49'0 0.1
2018-Jan-09 22:01N 45°55' W 122°49'0 0.1
2018-Jan-09 21:30N 45°55' W 122°49'0 0.1
2018-Jan-09 21:00N 45°55' W 122°49'0 0.1
2018-Jan-09 20:30N 45°55' W 122°49'0 0.0
2018-Jan-09 20:00N 45°55' W 122°49'0 0.1
2018-Jan-09 19:30N 45°55' W 122°49'0 0.0
2018-Jan-09 19:00N 45°55' W 122°49'0 0.0
2018-Jan-09 18:30N 45°55' W 122°49'0 0.0
2018-Jan-09 18:00N 45°55' W 122°49'0 0.0
2018-Jan-09 17:31N 45°55' W 122°49'0 0.0
2018-Jan-09 17:00N 45°55' W 122°49'0 0.0
2018-Jan-09 16:30N 45°55' W 122°49'0 0.0
2018-Jan-09 16:00N 45°55' W 122°49'0 0.0
2018-Jan-09 15:30N 45°55' W 122°49'0 0.0
2018-Jan-09 15:00N 45°55' W 122°49'0 0.0
2018-Jan-09 14:30N 45°55' W 122°49'0 0.0
2018-Jan-09 12:50N 45°55' W 122°49'0 0.0
2018-Jan-09 12:30N 45°55' W 122°49'3 5.7
2018-Jan-09 12:01N 45°52' W 122°47'4 8.8
2018-Jan-09 11:30N 45°47' W 122°47'4 8.7
2018-Jan-09 11:00N 45°43' W 122°46'4 8.5
2018-Jan-09 10:30N 45°39' W 122°45'4 7.7
2018-Jan-09 10:01N 45°37' W 122°41'3 6.9
2018-Jan-09 09:30N 45°36' W 122°36'4 8.3
2018-Jan-09 09:00N 45°35' W 122°30'4 7.2
2018-Jan-09 08:31N 45°34' W 122°25'0 0.9
2018-Jan-09 08:00N 45°34' W 122°25'0 0.0
2018-Jan-09 07:30N 45°34' W 122°25'  
Track history (hours):
 
Tides and Currents Weather Stations Pressure Air Temp Water Temp Dewpoint Dewpoint Depression Visibility Wind Speed Wind Dir Waves Ship Positions

Diane B.

Owner: Bernert Barge lines, Oregon City, OR. More information available from US FCC via Universal Licensing System and Coast Guard Vessel Documentation Center.

Last reported at 2018-Jan-18 16:23 UTC. Time now 2018-Jan-19 11:54 UTC.
Position N 45°34' W 122°25'.

Length 22 m.

Type: Towing. MMSI: 367575580.

Date/timePositionNaut miles runAvg speedWind from/ knotsBaromVisibWave heightAir tempDewpointWater temp
2018-Jan-18 16:23N 45°34' W 122°25'0 0.0
2018-Jan-18 16:01N 45°34' W 122°25'0 0.0
2018-Jan-18 15:30N 45°34' W 122°25'0 0.0
2018-Jan-18 14:58N 45°34' W 122°25'0 0.0
2018-Jan-18 14:29N 45°34' W 122°25'0 0.0
2018-Jan-18 14:00N 45°34' W 122°25'0 0.0
2018-Jan-18 13:30N 45°34' W 122°25'0 0.0
2018-Jan-18 12:59N 45°34' W 122°25'0 0.0
2018-Jan-18 12:30N 45°34' W 122°25'0 0.0
2018-Jan-18 12:01N 45°34' W 122°25'0 0.0
2018-Jan-18 11:30N 45°34' W 122°25'0 0.0
2018-Jan-18 11:01N 45°34' W 122°25'0 0.0
2018-Jan-18 10:28N 45°34' W 122°25'0 0.0
2018-Jan-18 10:00N 45°34' W 122°25'0 0.0
2018-Jan-18 09:29N 45°34' W 122°25'0 0.0
2018-Jan-18 09:00N 45°34' W 122°25'0 0.0
2018-Jan-18 08:31N 45°34' W 122°25'0 0.0
2018-Jan-18 08:00N 45°34' W 122°25'0 0.0
2018-Jan-18 07:31N 45°34' W 122°25'0 0.0
2018-Jan-18 07:00N 45°34' W 122°25'1 2.3
2018-Jan-18 06:30N 45°34' W 122°26'2 3.4
2018-Jan-18 06:00N 45°35' W 122°28'1 2.9
2018-Jan-18 05:30N 45°35' W 122°30'1 2.8
2018-Jan-18 05:00N 45°36' W 122°32'2 3.0
2018-Jan-18 04:30N 45°36' W 122°34'2 3.4
2018-Jan-18 04:01N 45°36' W 122°37'2 3.3
2018-Jan-18 03:31N 45°37' W 122°39'2 3.4
2018-Jan-18 03:00N 45°37' W 122°41'2 3.5
2018-Jan-18 02:30N 45°38' W 122°43'2 3.9
2018-Jan-18 01:59N 45°39' W 122°46'2 4.0
2018-Jan-18 01:30N 45°41' W 122°46'2 4.1
2018-Jan-18 01:00N 45°43' W 122°46'4 4.2
2018-Jan-18 00:01N 45°47' W 122°47'0 4.5
2018-Jan-17 23:57N 45°48' W 122°47'  
2018-Jan-12 09:10N 45°34' W 122°25'0 0.0
2018-Jan-12 09:00N 45°34' W 122°25'1 1.3
2018-Jan-12 08:30N 45°34' W 122°25'1 2.7
2018-Jan-12 08:00N 45°34' W 122°27'1 2.7
2018-Jan-12 07:30N 45°35' W 122°29'1 2.7
2018-Jan-12 07:00N 45°35' W 122°31'1 2.4
2018-Jan-12 06:30N 45°36' W 122°32'1 2.7
2018-Jan-12 06:00N 45°36' W 122°34'1 2.8
2018-Jan-12 05:30N 45°36' W 122°36'1 2.9
2018-Jan-12 05:00N 45°37' W 122°38'1 3.0
2018-Jan-12 04:30N 45°37' W 122°40'1 3.0
2018-Jan-12 04:01N 45°38' W 122°42'2 3.7
2018-Jan-12 03:30N 45°39' W 122°44'2 3.5
2018-Jan-12 03:00N 45°40' W 122°46'2 3.4
2018-Jan-12 02:30N 45°42' W 122°46'2 3.5
2018-Jan-12 02:01N 45°43' W 122°46'2 3.3
2018-Jan-12 01:30N 45°45' W 122°46'2 3.4
2018-Jan-12 01:01N 45°47' W 122°46'2 3.4
2018-Jan-12 00:30N 45°48' W 122°47'2 3.2
2018-Jan-12 00:01N 45°50' W 122°47'2 3.4
2018-Jan-11 23:30N 45°52' W 122°47'2 3.4
2018-Jan-11 23:00N 45°53' W 122°48'2 3.1
2018-Jan-11 22:29N 45°55' W 122°49'0 0.6
2018-Jan-11 22:00N 45°55' W 122°49'0 0.1
2018-Jan-11 21:30N 45°55' W 122°49'0 0.0
2018-Jan-11 21:00N 45°55' W 122°49'0 0.0
2018-Jan-11 20:30N 45°55' W 122°49'0 0.0
2018-Jan-11 20:00N 45°55' W 122°49'0 0.0
2018-Jan-11 19:30N 45°55' W 122°49'0 0.0
2018-Jan-11 19:01N 45°55' W 122°49'0 0.0
2018-Jan-11 18:30N 45°55' W 122°49'0 0.0
2018-Jan-11 18:00N 45°55' W 122°49'0 0.0
2018-Jan-11 17:22N 45°55' W 122°49'0 0.0
2018-Jan-11 17:00N 45°55' W 122°49'0 0.0
2018-Jan-11 16:30N 45°55' W 122°49'0 0.0
2018-Jan-11 16:00N 45°55' W 122°49'0 0.0
2018-Jan-11 15:30N 45°55' W 122°49'0 0.0
2018-Jan-11 15:00N 45°55' W 122°49'0 0.0
2018-Jan-11 14:30N 45°55' W 122°49'0 0.0
2018-Jan-11 14:00N 45°55' W 122°49'0 0.0
2018-Jan-11 13:31N 45°55' W 122°49'0 0.0
2018-Jan-11 13:00N 45°55' W 122°49'0 0.0
2018-Jan-11 12:30N 45°55' W 122°49'0 0.0
2018-Jan-11 12:00N 45°55' W 122°49'0 0.0
2018-Jan-11 11:30N 45°55' W 122°49'0 0.0
2018-Jan-11 11:00N 45°55' W 122°49'0 0.0
2018-Jan-11 10:30N 45°55' W 122°49'0 0.0
2018-Jan-11 10:00N 45°55' W 122°49'0 0.0
2018-Jan-11 09:30N 45°55' W 122°49'0 0.0
2018-Jan-11 09:01N 45°55' W 122°49'0 0.0
2018-Jan-11 08:30N 45°55' W 122°49'0 0.0
2018-Jan-11 08:00N 45°55' W 122°49'0 0.0
2018-Jan-11 07:29N 45°55' W 122°49'0 0.0
2018-Jan-11 07:01N 45°55' W 122°49'3 6.8
2018-Jan-11 06:30N 45°51' W 122°47'4 8.8
2018-Jan-11 06:00N 45°47' W 122°47'4 8.8
2018-Jan-11 05:30N 45°43' W 122°46'4 8.2
2018-Jan-11 04:59N 45°38' W 122°47'2 3.4
2018-Jan-11 04:30N 45°37' W 122°47'0 0.0
2018-Jan-11 04:00N 45°37' W 122°47'0 0.0
2018-Jan-11 03:30N 45°37' W 122°47'0 0.0
2018-Jan-11 03:00N 45°37' W 122°47'0 0.0
2018-Jan-11 02:30N 45°37' W 122°47'0 0.0
2018-Jan-11 02:00N 45°37' W 122°47'0 0.0
2018-Jan-11 01:30N 45°37' W 122°47'0 0.0
2018-Jan-11 01:00N 45°37' W 122°47'0 0.0
2018-Jan-11 00:31N 45°37' W 122°47'0 0.0
2018-Jan-11 00:00N 45°37' W 122°47'0 0.0
2018-Jan-10 23:30N 45°37' W 122°47'0 0.0
2018-Jan-10 23:00N 45°37' W 122°47'0 0.0
2018-Jan-10 22:30N 45°37' W 122°47'0 0.0
2018-Jan-10 22:00N 45°37' W 122°47'0 0.0
2018-Jan-10 21:30N 45°37' W 122°47'0 0.0
2018-Jan-10 21:00N 45°37' W 122°47'0 0.0
2018-Jan-10 20:30N 45°37' W 122°47'0 0.0
2018-Jan-10 20:00N 45°37' W 122°47'0 0.0
2018-Jan-10 19:30N 45°37' W 122°47'0 0.0
2018-Jan-10 19:00N 45°37' W 122°47'0 0.0
2018-Jan-10 18:30N 45°37' W 122°47'0 0.0
2018-Jan-10 18:00N 45°37' W 122°47'0 0.0
2018-Jan-10 17:30N 45°37' W 122°47'0 0.0
2018-Jan-10 17:00N 45°37' W 122°47'0 0.0
2018-Jan-10 16:30N 45°37' W 122°47'0 0.0
2018-Jan-10 16:00N 45°37' W 122°47'0 0.0
2018-Jan-10 15:30N 45°37' W 122°47'0 0.0
2018-Jan-10 15:00N 45°37' W 122°47'0 0.0
2018-Jan-10 14:30N 45°37' W 122°47'0 0.0
2018-Jan-10 14:00N 45°37' W 122°47'0 0.0
2018-Jan-10 13:22N 45°37' W 122°47'0 0.0
2018-Jan-10 13:00N 45°37' W 122°47'0 0.0
2018-Jan-10 12:30N 45°37' W 122°47'0 0.0
2018-Jan-10 12:00N 45°37' W 122°47'0 0.0
2018-Jan-10 11:30N 45°37' W 122°47'0 0.0
2018-Jan-10 11:00N 45°37' W 122°47'0 0.0
2018-Jan-10 10:30N 45°37' W 122°47'0 0.0
2018-Jan-10 10:01N 45°37' W 122°47'0 0.0
2018-Jan-10 09:30N 45°37' W 122°47'0 0.0
2018-Jan-10 09:00N 45°37' W 122°47'0 0.0
2018-Jan-10 08:31N 45°37' W 122°47'0 0.0
2018-Jan-10 08:00N 45°37' W 122°47'0 0.0
2018-Jan-10 07:31N 45°37' W 122°47'0 0.0
2018-Jan-10 07:00N 45°37' W 122°47'0 0.0
2018-Jan-10 06:31N 45°37' W 122°47'0 0.0
2018-Jan-10 06:01N 45°37' W 122°47'0 0.0
2018-Jan-10 05:30N 45°37' W 122°47'0 0.0
2018-Jan-10 05:00N 45°37' W 122°47'0 0.0
2018-Jan-10 04:30N 45°37' W 122°47'2 3.1
2018-Jan-10 04:00N 45°38' W 122°47'2 4.0
2018-Jan-10 03:30N 45°40' W 122°46'2 3.4
2018-Jan-10 02:54N 45°42' W 122°46'1 3.5
2018-Jan-10 02:30N 45°44' W 122°46'2 3.5
2018-Jan-10 02:00N 45°45' W 122°46'2 3.8
2018-Jan-10 01:30N 45°47' W 122°47'2 3.7
2018-Jan-10 00:59N 45°49' W 122°48'2 3.5
2018-Jan-10 00:23N 45°51' W 122°47'1 3.4
2018-Jan-09 23:59N 45°52' W 122°47'2 3.3
2018-Jan-09 23:30N 45°54' W 122°48'1 1.7
2018-Jan-09 23:00N 45°55' W 122°49'0 0.0
2018-Jan-09 22:30N 45°55' W 122°49'0 0.1
2018-Jan-09 22:01N 45°55' W 122°49'0 0.1
2018-Jan-09 21:30N 45°55' W 122°49'0 0.1
2018-Jan-09 21:00N 45°55' W 122°49'0 0.1
2018-Jan-09 20:30N 45°55' W 122°49'0 0.0
2018-Jan-09 20:00N 45°55' W 122°49'0 0.1
2018-Jan-09 19:30N 45°55' W 122°49'0 0.0
2018-Jan-09 19:00N 45°55' W 122°49'0 0.0
2018-Jan-09 18:30N 45°55' W 122°49'0 0.0
2018-Jan-09 18:00N 45°55' W 122°49'0 0.0
2018-Jan-09 17:31N 45°55' W 122°49'0 0.0
2018-Jan-09 17:00N 45°55' W 122°49'0 0.0
2018-Jan-09 16:30N 45°55' W 122°49'0 0.0
2018-Jan-09 16:00N 45°55' W 122°49'0 0.0
2018-Jan-09 15:30N 45°55' W 122°49'0 0.0
2018-Jan-09 15:00N 45°55' W 122°49'0 0.0
2018-Jan-09 14:30N 45°55' W 122°49'0 0.0
2018-Jan-09 12:50N 45°55' W 122°49'0 0.0
2018-Jan-09 12:30N 45°55' W 122°49'3 5.7
2018-Jan-09 12:01N 45°52' W 122°47'4 8.8
2018-Jan-09 11:30N 45°47' W 122°47'4 8.7
2018-Jan-09 11:00N 45°43' W 122°46'4 8.5
2018-Jan-09 10:30N 45°39' W 122°45'4 7.7
2018-Jan-09 10:01N 45°37' W 122°41'3 6.9
2018-Jan-09 09:30N 45°36' W 122°36'4 8.3
2018-Jan-09 09:00N 45°35' W 122°30'4 7.2
2018-Jan-09 08:31N 45°34' W 122°25'0 0.9
2018-Jan-09 08:00N 45°34' W 122°25'0 0.0
2018-Jan-09 07:30N 45°34' W 122°25'  

Dump ship's entire track history